sensor_id;sensor_type;location;lat;lon;timestamp;temperature;humidity
39621;DHT22;25309;48.686;9.170;2023-05-07T00:02:09;15.60;99.90
39621;DHT22;25309;48.686;9.170;2023-05-07T00:04:36;15.60;99.90
39621;DHT22;25309;48.686;9.170;2023-05-07T00:07:05;15.60;99.90
39621;DHT22;25309;48.686;9.170;2023-05-07T00:09:32;15.60;99.90
39621;DHT22;25309;48.686;9.170;2023-05-07T00:11:59;15.60;99.90
39621;DHT22;25309;48.686;9.170;2023-05-07T00:14:26;15.60;99.90
39621;DHT22;25309;48.686;9.170;2023-05-07T00:16:53;15.50;99.90
39621;DHT22;25309;48.686;9.170;2023-05-07T00:19:21;15.50;99.90
39621;DHT22;25309;48.686;9.170;2023-05-07T00:21:48;15.60;99.90
39621;DHT22;25309;48.686;9.170;2023-05-07T00:24:15;15.50;99.90
39621;DHT22;25309;48.686;9.170;2023-05-07T00:26:42;15.50;99.90
39621;DHT22;25309;48.686;9.170;2023-05-07T00:29:09;15.60;99.90
39621;DHT22;25309;48.686;9.170;2023-05-07T00:31:36;15.60;99.90
39621;DHT22;25309;48.686;9.170;2023-05-07T00:34:03;15.50;99.90
39621;DHT22;25309;48.686;9.170;2023-05-07T00:36:31;15.40;99.90
39621;DHT22;25309;48.686;9.170;2023-05-07T00:38:59;15.40;99.90
39621;DHT22;25309;48.686;9.170;2023-05-07T00:41:27;15.30;99.90
39621;DHT22;25309;48.686;9.170;2023-05-07T00:43:54;15.30;99.90
39621;DHT22;25309;48.686;9.170;2023-05-07T00:46:21;15.30;99.90
39621;DHT22;25309;48.686;9.170;2023-05-07T00:48:49;15.30;99.90
39621;DHT22;25309;48.686;9.170;2023-05-07T00:51:17;15.30;99.90
39621;DHT22;25309;48.686;9.170;2023-05-07T00:53:45;15.30;99.90
39621;DHT22;25309;48.686;9.170;2023-05-07T00:56:13;15.30;99.90
39621;DHT22;25309;48.686;9.170;2023-05-07T00:58:40;15.20;99.90
39621;DHT22;25309;48.686;9.170;2023-05-07T01:01:07;15.10;99.90
39621;DHT22;25309;48.686;9.170;2023-05-07T01:03:34;15.10;99.90
39621;DHT22;25309;48.686;9.170;2023-05-07T01:06:03;15.10;99.90
39621;DHT22;25309;48.686;9.170;2023-05-07T01:08:31;15.00;99.90
39621;DHT22;25309;48.686;9.170;2023-05-07T01:11:00;15.00;99.90
39621;DHT22;25309;48.686;9.170;2023-05-07T01:13:27;15.00;99.90
39621;DHT22;25309;48.686;9.170;2023-05-07T01:15:54;15.10;99.90
39621;DHT22;25309;48.686;9.170;2023-05-07T01:18:21;15.10;99.90
39621;DHT22;25309;48.686;9.170;2023-05-07T01:20:48;15.10;99.90
39621;DHT22;25309;48.686;9.170;2023-05-07T01:23:18;15.00;99.90
39621;DHT22;25309;48.686;9.170;2023-05-07T01:25:51;15.00;99.90
39621;DHT22;25309;48.686;9.170;2023-05-07T01:28:20;15.10;99.90
39621;DHT22;25309;48.686;9.170;2023-05-07T01:30:49;15.10;99.90
39621;DHT22;25309;48.686;9.170;2023-05-07T01:33:18;15.20;99.90
39621;DHT22;25309;48.686;9.170;2023-05-07T01:35:48;15.10;99.90
39621;DHT22;25309;48.686;9.170;2023-05-07T01:38:18;15.10;99.90
39621;DHT22;25309;48.686;9.170;2023-05-07T01:40:45;15.20;99.90
39621;DHT22;25309;48.686;9.170;2023-05-07T01:43:12;15.10;99.90
39621;DHT22;25309;48.686;9.170;2023-05-07T01:45:40;15.00;99.90
39621;DHT22;25309;48.686;9.170;2023-05-07T01:48:09;14.90;99.90
39621;DHT22;25309;48.686;9.170;2023-05-07T01:50:37;14.80;99.90
39621;DHT22;25309;48.686;9.170;2023-05-07T01:53:04;14.80;99.90
39621;DHT22;25309;48.686;9.170;2023-05-07T01:55:33;14.80;99.90
39621;DHT22;25309;48.686;9.170;2023-05-07T01:58:00;14.80;99.90
39621;DHT22;25309;48.686;9.170;2023-05-07T02:00:27;14.80;99.90
39621;DHT22;25309;48.686;9.170;2023-05-07T02:02:54;14.70;99.90
39621;DHT22;25309;48.686;9.170;2023-05-07T02:05:38;14.70;99.90
39621;DHT22;25309;48.686;9.170;2023-05-07T02:08:15;14.70;99.90
39621;DHT22;25309;48.686;9.170;2023-05-07T02:10:44;14.70;99.90
39621;DHT22;25309;48.686;9.170;2023-05-07T02:13:10;14.70;99.90
39621;DHT22;25309;48.686;9.170;2023-05-07T02:15:38;14.70;99.90
39621;DHT22;25309;48.686;9.170;2023-05-07T02:18:06;14.70;99.90
39621;DHT22;25309;48.686;9.170;2023-05-07T02:20:33;14.70;99.90
39621;DHT22;25309;48.686;9.170;2023-05-07T02:23:01;14.80;99.90
39621;DHT22;25309;48.686;9.170;2023-05-07T02:25:29;14.80;99.90
39621;DHT22;25309;48.686;9.170;2023-05-07T02:27:58;14.80;99.90
39621;DHT22;25309;48.686;9.170;2023-05-07T02:30:40;14.70;99.90
39621;DHT22;25309;48.686;9.170;2023-05-07T02:33:08;14.70;99.90
39621;DHT22;25309;48.686;9.170;2023-05-07T02:35:35;14.60;99.90
39621;DHT22;25309;48.686;9.170;2023-05-07T02:38:02;14.50;99.90
39621;DHT22;25309;48.686;9.170;2023-05-07T02:40:30;14.50;99.90
39621;DHT22;25309;48.686;9.170;2023-05-07T02:43:01;14.50;99.90
39621;DHT22;25309;48.686;9.170;2023-05-07T02:45:28;14.50;99.90
39621;DHT22;25309;48.686;9.170;2023-05-07T02:47:56;14.50;99.90
39621;DHT22;25309;48.686;9.170;2023-05-07T02:50:23;14.50;99.90
39621;DHT22;25309;48.686;9.170;2023-05-07T02:52:50;14.50;99.90
39621;DHT22;25309;48.686;9.170;2023-05-07T02:55:17;14.40;99.90
39621;DHT22;25309;48.686;9.170;2023-05-07T02:57:44;14.30;99.90
39621;DHT22;25309;48.686;9.170;2023-05-07T03:00:14;14.40;99.90
39621;DHT22;25309;48.686;9.170;2023-05-07T03:02:48;14.40;99.90
39621;DHT22;25309;48.686;9.170;2023-05-07T03:05:15;14.30;99.90
39621;DHT22;25309;48.686;9.170;2023-05-07T03:07:42;14.40;99.90
39621;DHT22;25309;48.686;9.170;2023-05-07T03:10:13;14.30;99.90
39621;DHT22;25309;48.686;9.170;2023-05-07T03:12:39;14.30;99.90
39621;DHT22;25309;48.686;9.170;2023-05-07T03:15:09;14.30;99.90
39621;DHT22;25309;48.686;9.170;2023-05-07T03:17:38;14.30;99.90
39621;DHT22;25309;48.686;9.170;2023-05-07T03:20:06;14.40;99.90
39621;DHT22;25309;48.686;9.170;2023-05-07T03:22:34;14.40;99.90
39621;DHT22;25309;48.686;9.170;2023-05-07T03:25:01;14.40;99.90
39621;DHT22;25309;48.686;9.170;2023-05-07T03:27:28;14.40;99.90
39621;DHT22;25309;48.686;9.170;2023-05-07T03:29:55;14.40;99.90
39621;DHT22;25309;48.686;9.170;2023-05-07T03:32:22;14.30;99.90
39621;DHT22;25309;48.686;9.170;2023-05-07T03:34:51;14.30;99.90
39621;DHT22;25309;48.686;9.170;2023-05-07T03:37:18;14.20;99.90
39621;DHT22;25309;48.686;9.170;2023-05-07T03:39:45;14.20;99.90
39621;DHT22;25309;48.686;9.170;2023-05-07T03:42:12;14.10;99.90
39621;DHT22;25309;48.686;9.170;2023-05-07T03:44:39;14.10;99.90
39621;DHT22;25309;48.686;9.170;2023-05-07T03:47:06;14.10;99.90
39621;DHT22;25309;48.686;9.170;2023-05-07T03:49:34;14.10;99.90
39621;DHT22;25309;48.686;9.170;2023-05-07T03:52:03;14.10;99.90
39621;DHT22;25309;48.686;9.170;2023-05-07T03:54:31;14.20;99.90
39621;DHT22;25309;48.686;9.170;2023-05-07T03:56:59;14.10;99.90
39621;DHT22;25309;48.686;9.170;2023-05-07T03:59:26;14.00;99.90
39621;DHT22;25309;48.686;9.170;2023-05-07T04:01:53;14.00;99.90
39621;DHT22;25309;48.686;9.170;2023-05-07T04:04:22;14.00;99.90
39621;DHT22;25309;48.686;9.170;2023-05-07T04:06:49;14.00;99.90
39621;DHT22;25309;48.686;9.170;2023-05-07T04:09:18;14.00;99.90
39621;DHT22;25309;48.686;9.170;2023-05-07T04:11:46;14.00;99.90
39621;DHT22;25309;48.686;9.170;2023-05-07T04:14:14;13.90;99.90
39621;DHT22;25309;48.686;9.170;2023-05-07T04:16:40;13.90;99.90
39621;DHT22;25309;48.686;9.170;2023-05-07T04:19:08;13.90;99.90
39621;DHT22;25309;48.686;9.170;2023-05-07T04:21:36;13.90;99.90
39621;DHT22;25309;48.686;9.170;2023-05-07T04:24:03;14.00;99.90
39621;DHT22;25309;48.686;9.170;2023-05-07T04:26:32;14.10;99.90
39621;DHT22;25309;48.686;9.170;2023-05-07T04:28:58;14.10;99.90
39621;DHT22;25309;48.686;9.170;2023-05-07T04:31:31;14.00;99.90
39621;DHT22;25309;48.686;9.170;2023-05-07T04:33:58;14.10;99.90
39621;DHT22;25309;48.686;9.170;2023-05-07T04:36:26;14.10;99.90
39621;DHT22;25309;48.686;9.170;2023-05-07T04:38:59;14.00;99.90
39621;DHT22;25309;48.686;9.170;2023-05-07T04:41:27;13.90;99.90
39621;DHT22;25309;48.686;9.170;2023-05-07T04:43:56;13.80;99.90
39621;DHT22;25309;48.686;9.170;2023-05-07T04:46:28;13.90;99.90
39621;DHT22;25309;48.686;9.170;2023-05-07T04:48:56;13.90;99.90
39621;DHT22;25309;48.686;9.170;2023-05-07T04:51:23;13.90;99.90
39621;DHT22;25309;48.686;9.170;2023-05-07T04:53:50;13.80;99.90
39621;DHT22;25309;48.686;9.170;2023-05-07T04:56:17;13.70;99.90
39621;DHT22;25309;48.686;9.170;2023-05-07T04:58:46;13.70;99.90
39621;DHT22;25309;48.686;9.170;2023-05-07T05:01:16;13.80;99.90
39621;DHT22;25309;48.686;9.170;2023-05-07T05:03:43;13.80;99.90
39621;DHT22;25309;48.686;9.170;2023-05-07T05:06:11;13.90;99.90
39621;DHT22;25309;48.686;9.170;2023-05-07T05:08:37;14.00;99.90
39621;DHT22;25309;48.686;9.170;2023-05-07T05:11:04;14.00;99.90
39621;DHT22;25309;48.686;9.170;2023-05-07T05:13:34;14.00;99.90
39621;DHT22;25309;48.686;9.170;2023-05-07T05:16:07;14.00;99.90
39621;DHT22;25309;48.686;9.170;2023-05-07T05:18:36;14.00;99.90
39621;DHT22;25309;48.686;9.170;2023-05-07T05:21:03;14.10;99.90
39621;DHT22;25309;48.686;9.170;2023-05-07T05:23:31;14.10;99.90
39621;DHT22;25309;48.686;9.170;2023-05-07T05:25:58;14.20;99.90
39621;DHT22;25309;48.686;9.170;2023-05-07T05:28:28;14.30;99.90
39621;DHT22;25309;48.686;9.170;2023-05-07T05:30:56;14.40;99.90
39621;DHT22;25309;48.686;9.170;2023-05-07T05:33:25;14.40;99.90
39621;DHT22;25309;48.686;9.170;2023-05-07T05:35:54;14.40;99.90
39621;DHT22;25309;48.686;9.170;2023-05-07T05:38:21;14.50;99.90
39621;DHT22;25309;48.686;9.170;2023-05-07T05:40:49;14.60;99.90
39621;DHT22;25309;48.686;9.170;2023-05-07T05:43:16;14.70;99.90
39621;DHT22;25309;48.686;9.170;2023-05-07T05:45:43;14.70;99.90
39621;DHT22;25309;48.686;9.170;2023-05-07T05:48:10;14.80;99.90
39621;DHT22;25309;48.686;9.170;2023-05-07T05:50:37;14.80;99.90
39621;DHT22;25309;48.686;9.170;2023-05-07T05:53:07;14.90;99.90
39621;DHT22;25309;48.686;9.170;2023-05-07T05:55:34;15.00;99.90
39621;DHT22;25309;48.686;9.170;2023-05-07T05:58:01;15.00;99.90
39621;DHT22;25309;48.686;9.170;2023-05-07T06:00:30;15.00;99.90
39621;DHT22;25309;48.686;9.170;2023-05-07T06:03:01;15.10;99.90
39621;DHT22;25309;48.686;9.170;2023-05-07T06:05:28;15.10;99.90
39621;DHT22;25309;48.686;9.170;2023-05-07T06:07:56;15.10;99.90
39621;DHT22;25309;48.686;9.170;2023-05-07T06:10:25;15.20;99.90
39621;DHT22;25309;48.686;9.170;2023-05-07T06:12:54;15.20;99.90
39621;DHT22;25309;48.686;9.170;2023-05-07T06:15:21;15.30;99.90
39621;DHT22;25309;48.686;9.170;2023-05-07T06:17:49;15.40;99.90
39621;DHT22;25309;48.686;9.170;2023-05-07T06:20:17;15.50;99.90
39621;DHT22;25309;48.686;9.170;2023-05-07T06:22:44;15.60;99.90
39621;DHT22;25309;48.686;9.170;2023-05-07T06:25:12;15.70;99.90
39621;DHT22;25309;48.686;9.170;2023-05-07T06:27:42;15.70;99.90
39621;DHT22;25309;48.686;9.170;2023-05-07T06:30:10;15.80;99.90
39621;DHT22;25309;48.686;9.170;2023-05-07T06:32:39;15.80;99.90
39621;DHT22;25309;48.686;9.170;2023-05-07T06:35:08;16.00;99.90
39621;DHT22;25309;48.686;9.170;2023-05-07T06:37:37;16.00;99.90
39621;DHT22;25309;48.686;9.170;2023-05-07T06:40:13;16.20;99.90
39621;DHT22;25309;48.686;9.170;2023-05-07T06:42:43;16.30;99.90
39621;DHT22;25309;48.686;9.170;2023-05-07T06:45:22;16.40;99.90
39621;DHT22;25309;48.686;9.170;2023-05-07T06:47:50;16.60;99.90
39621;DHT22;25309;48.686;9.170;2023-05-07T06:50:17;16.70;99.90
39621;DHT22;25309;48.686;9.170;2023-05-07T06:52:45;16.90;99.90
39621;DHT22;25309;48.686;9.170;2023-05-07T06:55:12;17.00;99.90
39621;DHT22;25309;48.686;9.170;2023-05-07T06:57:39;17.10;99.90
39621;DHT22;25309;48.686;9.170;2023-05-07T07:00:09;17.20;99.90
39621;DHT22;25309;48.686;9.170;2023-05-07T07:02:45;17.30;99.90
39621;DHT22;25309;48.686;9.170;2023-05-07T07:05:14;17.40;99.90
39621;DHT22;25309;48.686;9.170;2023-05-07T07:07:41;17.50;99.90
39621;DHT22;25309;48.686;9.170;2023-05-07T07:10:09;17.50;99.90
39621;DHT22;25309;48.686;9.170;2023-05-07T07:12:37;17.60;99.90
39621;DHT22;25309;48.686;9.170;2023-05-07T07:15:05;17.70;99.90
39621;DHT22;25309;48.686;9.170;2023-05-07T07:17:33;17.80;99.90
39621;DHT22;25309;48.686;9.170;2023-05-07T07:20:00;17.90;99.90
39621;DHT22;25309;48.686;9.170;2023-05-07T07:22:29;17.80;99.90
39621;DHT22;25309;48.686;9.170;2023-05-07T07:24:56;17.80;99.90
39621;DHT22;25309;48.686;9.170;2023-05-07T07:27:23;17.80;99.90
39621;DHT22;25309;48.686;9.170;2023-05-07T07:29:50;17.90;99.90
39621;DHT22;25309;48.686;9.170;2023-05-07T07:32:18;18.00;99.90
39621;DHT22;25309;48.686;9.170;2023-05-07T07:34:46;18.10;99.90
39621;DHT22;25309;48.686;9.170;2023-05-07T07:37:13;18.20;99.90
39621;DHT22;25309;48.686;9.170;2023-05-07T07:39:41;18.30;99.90
39621;DHT22;25309;48.686;9.170;2023-05-07T07:42:08;18.50;99.90
39621;DHT22;25309;48.686;9.170;2023-05-07T07:44:35;18.60;99.90
39621;DHT22;25309;48.686;9.170;2023-05-07T07:47:06;18.70;99.90
39621;DHT22;25309;48.686;9.170;2023-05-07T07:49:34;18.80;99.90
39621;DHT22;25309;48.686;9.170;2023-05-07T07:52:05;18.90;99.90
39621;DHT22;25309;48.686;9.170;2023-05-07T07:54:35;19.00;99.90
39621;DHT22;25309;48.686;9.170;2023-05-07T07:57:03;19.10;99.90
39621;DHT22;25309;48.686;9.170;2023-05-07T07:59:32;19.20;99.90
39621;DHT22;25309;48.686;9.170;2023-05-07T08:01:59;19.40;99.90
39621;DHT22;25309;48.686;9.170;2023-05-07T08:04:28;19.60;99.90
39621;DHT22;25309;48.686;9.170;2023-05-07T08:06:57;19.60;99.90
39621;DHT22;25309;48.686;9.170;2023-05-07T08:09:26;19.80;99.90
39621;DHT22;25309;48.686;9.170;2023-05-07T08:11:54;19.80;99.90
39621;DHT22;25309;48.686;9.170;2023-05-07T08:14:21;19.90;99.90
39621;DHT22;25309;48.686;9.170;2023-05-07T08:16:48;19.90;99.90
39621;DHT22;25309;48.686;9.170;2023-05-07T08:19:15;20.00;99.90
39621;DHT22;25309;48.686;9.170;2023-05-07T08:21:43;20.00;99.90
39621;DHT22;25309;48.686;9.170;2023-05-07T08:24:11;20.10;99.90
39621;DHT22;25309;48.686;9.170;2023-05-07T08:26:40;20.20;99.90
39621;DHT22;25309;48.686;9.170;2023-05-07T08:29:09;20.40;99.90
39621;DHT22;25309;48.686;9.170;2023-05-07T08:31:37;20.60;99.90
39621;DHT22;25309;48.686;9.170;2023-05-07T08:37:25;20.80;99.90
39621;DHT22;25309;48.686;9.170;2023-05-07T08:39:52;20.90;99.90
39621;DHT22;25309;48.686;9.170;2023-05-07T08:42:23;21.00;99.90
39621;DHT22;25309;48.686;9.170;2023-05-07T08:44:52;21.20;99.90
39621;DHT22;25309;48.686;9.170;2023-05-07T08:47:23;21.30;99.90
39621;DHT22;25309;48.686;9.170;2023-05-07T08:49:53;21.50;99.90
39621;DHT22;25309;48.686;9.170;2023-05-07T08:52:22;21.50;99.90
39621;DHT22;25309;48.686;9.170;2023-05-07T08:54:49;21.60;99.90
39621;DHT22;25309;48.686;9.170;2023-05-07T08:57:17;21.70;99.90
39621;DHT22;25309;48.686;9.170;2023-05-07T08:59:48;21.70;99.90
39621;DHT22;25309;48.686;9.170;2023-05-07T09:02:15;21.80;99.90
39621;DHT22;25309;48.686;9.170;2023-05-07T09:04:43;22.00;99.90
39621;DHT22;25309;48.686;9.170;2023-05-07T09:07:16;22.10;99.10
39621;DHT22;25309;48.686;9.170;2023-05-07T09:09:57;22.20;98.50
39621;DHT22;25309;48.686;9.170;2023-05-07T09:12:42;22.30;99.50
39621;DHT22;25309;48.686;9.170;2023-05-07T09:15:24;22.60;98.70
39621;DHT22;25309;48.686;9.170;2023-05-07T09:17:57;22.80;98.40
39621;DHT22;25309;48.686;9.170;2023-05-07T09:20:54;23.10;98.30
39621;DHT22;25309;48.686;9.170;2023-05-07T09:24:06;23.20;96.90
39621;DHT22;25309;48.686;9.170;2023-05-07T09:26:38;23.30;97.00
39621;DHT22;25309;48.686;9.170;2023-05-07T09:30:07;23.50;97.00
39621;DHT22;25309;48.686;9.170;2023-05-07T09:35:40;23.80;95.60
39621;DHT22;25309;48.686;9.170;2023-05-07T09:38:12;23.90;96.10
39621;DHT22;25309;48.686;9.170;2023-05-07T09:40:41;24.10;95.10
39621;DHT22;25309;48.686;9.170;2023-05-07T09:43:14;24.30;94.80
39621;DHT22;25309;48.686;9.170;2023-05-07T09:46:09;24.50;94.00
39621;DHT22;25309;48.686;9.170;2023-05-07T09:48:53;24.70;93.60
39621;DHT22;25309;48.686;9.170;2023-05-07T09:51:38;24.90;93.80
39621;DHT22;25309;48.686;9.170;2023-05-07T09:54:07;24.90;93.40
39621;DHT22;25309;48.686;9.170;2023-05-07T09:56:38;25.00;93.10
39621;DHT22;25309;48.686;9.170;2023-05-07T09:59:10;24.90;92.20
39621;DHT22;25309;48.686;9.170;2023-05-07T10:01:41;25.00;92.50
39621;DHT22;25309;48.686;9.170;2023-05-07T10:04:09;25.20;92.40
39621;DHT22;25309;48.686;9.170;2023-05-07T10:06:40;25.40;92.60
39621;DHT22;25309;48.686;9.170;2023-05-07T10:09:09;25.70;92.20
39621;DHT22;25309;48.686;9.170;2023-05-07T10:11:38;26.10;91.40
39621;DHT22;25309;48.686;9.170;2023-05-07T10:14:06;26.40;90.20
39621;DHT22;25309;48.686;9.170;2023-05-07T10:16:35;26.40;89.00
39621;DHT22;25309;48.686;9.170;2023-05-07T10:19:09;26.40;90.30
39621;DHT22;25309;48.686;9.170;2023-05-07T10:21:48;26.70;90.10
39621;DHT22;25309;48.686;9.170;2023-05-07T10:24:20;26.80;87.70
39621;DHT22;25309;48.686;9.170;2023-05-07T10:26:50;27.10;88.20
39621;DHT22;25309;48.686;9.170;2023-05-07T10:29:29;27.40;87.50
39621;DHT22;25309;48.686;9.170;2023-05-07T10:32:02;27.70;85.90
39621;DHT22;25309;48.686;9.170;2023-05-07T10:34:40;27.90;85.00
39621;DHT22;25309;48.686;9.170;2023-05-07T10:37:10;28.10;85.00
39621;DHT22;25309;48.686;9.170;2023-05-07T10:39:38;28.30;83.10
39621;DHT22;25309;48.686;9.170;2023-05-07T10:42:09;28.50;82.90
39621;DHT22;25309;48.686;9.170;2023-05-07T10:44:38;28.80;84.20
39621;DHT22;25309;48.686;9.170;2023-05-07T10:47:11;29.10;83.30
39621;DHT22;25309;48.686;9.170;2023-05-07T10:53:21;29.30;80.50
39621;DHT22;25309;48.686;9.170;2023-05-07T10:56:24;29.40;82.10
39621;DHT22;25309;48.686;9.170;2023-05-07T10:59:32;29.90;78.10
39621;DHT22;25309;48.686;9.170;2023-05-07T11:02:15;30.20;79.60
39621;DHT22;25309;48.686;9.170;2023-05-07T11:05:20;30.40;77.80
39621;DHT22;25309;48.686;9.170;2023-05-07T11:08:04;30.70;77.60
39621;DHT22;25309;48.686;9.170;2023-05-07T11:10:51;30.40;73.90
39621;DHT22;25309;48.686;9.170;2023-05-07T11:13:44;30.00;74.70
39621;DHT22;25309;48.686;9.170;2023-05-07T11:16:35;29.70;75.40
39621;DHT22;25309;48.686;9.170;2023-05-07T11:19:13;29.50;74.90
39621;DHT22;25309;48.686;9.170;2023-05-07T11:21:44;29.40;75.50
39621;DHT22;25309;48.686;9.170;2023-05-07T11:24:39;29.00;76.10
39621;DHT22;25309;48.686;9.170;2023-05-07T11:27:07;28.70;76.20
39621;DHT22;25309;48.686;9.170;2023-05-07T11:29:35;28.30;74.50
39621;DHT22;25309;48.686;9.170;2023-05-07T11:32:07;28.00;77.30
39621;DHT22;25309;48.686;9.170;2023-05-07T11:34:40;27.70;76.90
39621;DHT22;25309;48.686;9.170;2023-05-07T11:37:08;27.50;78.80
39621;DHT22;25309;48.686;9.170;2023-05-07T11:40:08;27.40;78.10
39621;DHT22;25309;48.686;9.170;2023-05-07T11:42:37;27.40;76.80
39621;DHT22;25309;48.686;9.170;2023-05-07T11:45:06;27.30;77.50
39621;DHT22;25309;48.686;9.170;2023-05-07T11:47:33;27.30;79.90
39621;DHT22;25309;48.686;9.170;2023-05-07T11:50:03;27.30;78.30
39621;DHT22;25309;48.686;9.170;2023-05-07T11:52:31;27.10;78.30
39621;DHT22;25309;48.686;9.170;2023-05-07T11:54:59;26.90;79.60
39621;DHT22;25309;48.686;9.170;2023-05-07T11:57:28;26.80;81.40
39621;DHT22;25309;48.686;9.170;2023-05-07T11:59:55;26.80;81.70
39621;DHT22;25309;48.686;9.170;2023-05-07T12:02:22;26.80;80.00
39621;DHT22;25309;48.686;9.170;2023-05-07T12:04:52;26.70;81.20
39621;DHT22;25309;48.686;9.170;2023-05-07T12:07:19;26.70;81.10
39621;DHT22;25309;48.686;9.170;2023-05-07T12:09:46;26.50;79.40
39621;DHT22;25309;48.686;9.170;2023-05-07T12:12:14;26.20;78.50
39621;DHT22;25309;48.686;9.170;2023-05-07T12:14:44;26.00;79.80
39621;DHT22;25309;48.686;9.170;2023-05-07T12:17:13;25.90;81.60
39621;DHT22;25309;48.686;9.170;2023-05-07T12:19:43;25.70;81.90
39621;DHT22;25309;48.686;9.170;2023-05-07T12:22:10;25.70;82.10
39621;DHT22;25309;48.686;9.170;2023-05-07T12:24:44;25.50;85.10
39621;DHT22;25309;48.686;9.170;2023-05-07T12:27:11;25.10;87.80
39621;DHT22;25309;48.686;9.170;2023-05-07T12:29:38;24.80;90.00
39621;DHT22;25309;48.686;9.170;2023-05-07T12:32:13;24.30;89.50
39621;DHT22;25309;48.686;9.170;2023-05-07T12:34:40;23.90;87.90
39621;DHT22;25309;48.686;9.170;2023-05-07T12:37:11;23.50;88.10
39621;DHT22;25309;48.686;9.170;2023-05-07T12:39:44;23.10;91.10
39621;DHT22;25309;48.686;9.170;2023-05-07T12:42:15;22.60;92.60
39621;DHT22;25309;48.686;9.170;2023-05-07T12:44:45;22.00;95.70
39621;DHT22;25309;48.686;9.170;2023-05-07T12:47:15;21.00;99.80
39621;DHT22;25309;48.686;9.170;2023-05-07T12:49:42;20.10;99.90
39621;DHT22;25309;48.686;9.170;2023-05-07T12:52:11;19.50;99.90
39621;DHT22;25309;48.686;9.170;2023-05-07T12:54:38;19.00;99.90
39621;DHT22;25309;48.686;9.170;2023-05-07T12:57:07;18.60;99.90
39621;DHT22;25309;48.686;9.170;2023-05-07T12:59:35;18.50;99.90
39621;DHT22;25309;48.686;9.170;2023-05-07T13:02:02;18.30;99.90
39621;DHT22;25309;48.686;9.170;2023-05-07T13:04:31;18.20;99.90
39621;DHT22;25309;48.686;9.170;2023-05-07T13:06:59;18.10;99.90
39621;DHT22;25309;48.686;9.170;2023-05-07T13:09:26;17.90;99.90
39621;DHT22;25309;48.686;9.170;2023-05-07T13:11:55;17.80;99.90
39621;DHT22;25309;48.686;9.170;2023-05-07T13:14:22;17.70;99.90
39621;DHT22;25309;48.686;9.170;2023-05-07T13:16:49;17.70;99.90
39621;DHT22;25309;48.686;9.170;2023-05-07T13:19:16;17.80;99.90
39621;DHT22;25309;48.686;9.170;2023-05-07T13:21:45;17.90;99.90
39621;DHT22;25309;48.686;9.170;2023-05-07T13:24:12;18.00;99.90
39621;DHT22;25309;48.686;9.170;2023-05-07T13:26:39;18.10;99.90
39621;DHT22;25309;48.686;9.170;2023-05-07T13:29:06;18.10;99.90
39621;DHT22;25309;48.686;9.170;2023-05-07T13:31:33;18.20;99.90
39621;DHT22;25309;48.686;9.170;2023-05-07T13:34:00;18.20;99.90
39621;DHT22;25309;48.686;9.170;2023-05-07T13:36:27;18.20;99.90
39621;DHT22;25309;48.686;9.170;2023-05-07T13:38:56;18.20;99.90
39621;DHT22;25309;48.686;9.170;2023-05-07T13:41:25;18.20;99.90
39621;DHT22;25309;48.686;9.170;2023-05-07T13:43:52;18.00;99.90
39621;DHT22;25309;48.686;9.170;2023-05-07T13:46:19;17.70;99.90
39621;DHT22;25309;48.686;9.170;2023-05-07T13:48:46;17.20;99.90
39621;DHT22;25309;48.686;9.170;2023-05-07T13:51:13;16.60;99.90
39621;DHT22;25309;48.686;9.170;2023-05-07T13:53:40;16.10;99.90
39621;DHT22;25309;48.686;9.170;2023-05-07T13:56:08;15.50;99.90
39621;DHT22;25309;48.686;9.170;2023-05-07T13:58:35;15.30;99.90
39621;DHT22;25309;48.686;9.170;2023-05-07T14:01:10;14.90;99.90
39621;DHT22;25309;48.686;9.170;2023-05-07T14:03:37;14.80;99.90
39621;DHT22;25309;48.686;9.170;2023-05-07T14:06:06;14.70;99.90
39621;DHT22;25309;48.686;9.170;2023-05-07T14:08:33;14.60;99.90
39621;DHT22;25309;48.686;9.170;2023-05-07T14:11:00;14.60;99.90
39621;DHT22;25309;48.686;9.170;2023-05-07T14:13:28;14.60;99.90
39621;DHT22;25309;48.686;9.170;2023-05-07T14:15:57;14.50;99.90
39621;DHT22;25309;48.686;9.170;2023-05-07T14:18:24;14.50;99.90
39621;DHT22;25309;48.686;9.170;2023-05-07T14:20:51;14.50;99.90
39621;DHT22;25309;48.686;9.170;2023-05-07T14:23:18;14.40;99.90
39621;DHT22;25309;48.686;9.170;2023-05-07T14:25:46;14.40;99.90
39621;DHT22;25309;48.686;9.170;2023-05-07T14:28:14;14.40;99.90
39621;DHT22;25309;48.686;9.170;2023-05-07T14:30:42;14.50;99.90
39621;DHT22;25309;48.686;9.170;2023-05-07T14:33:09;14.50;99.90
39621;DHT22;25309;48.686;9.170;2023-05-07T14:35:36;14.60;99.90
39621;DHT22;25309;48.686;9.170;2023-05-07T14:38:03;14.60;99.90
39621;DHT22;25309;48.686;9.170;2023-05-07T14:40:30;14.70;99.90
39621;DHT22;25309;48.686;9.170;2023-05-07T14:42:57;14.80;99.90
39621;DHT22;25309;48.686;9.170;2023-05-07T14:45:24;14.80;99.90
39621;DHT22;25309;48.686;9.170;2023-05-07T14:47:53;14.80;99.90
39621;DHT22;25309;48.686;9.170;2023-05-07T14:50:20;14.90;99.90
39621;DHT22;25309;48.686;9.170;2023-05-07T14:52:47;15.00;99.90
39621;DHT22;25309;48.686;9.170;2023-05-07T14:55:14;15.20;99.90
39621;DHT22;25309;48.686;9.170;2023-05-07T14:57:41;15.30;99.90
39621;DHT22;25309;48.686;9.170;2023-05-07T15:00:09;15.50;99.90
39621;DHT22;25309;48.686;9.170;2023-05-07T15:02:36;15.60;99.90
39621;DHT22;25309;48.686;9.170;2023-05-07T15:05:06;15.60;99.90
39621;DHT22;25309;48.686;9.170;2023-05-07T15:07:33;15.70;99.90
39621;DHT22;25309;48.686;9.170;2023-05-07T15:10:00;15.90;99.90
39621;DHT22;25309;48.686;9.170;2023-05-07T15:12:27;16.00;99.90
39621;DHT22;25309;48.686;9.170;2023-05-07T15:14:54;16.10;99.90
39621;DHT22;25309;48.686;9.170;2023-05-07T15:17:21;16.20;99.90
39621;DHT22;25309;48.686;9.170;2023-05-07T15:19:48;16.30;99.90
39621;DHT22;25309;48.686;9.170;2023-05-07T15:22:17;16.40;99.90
39621;DHT22;25309;48.686;9.170;2023-05-07T15:24:44;16.50;99.90
39621;DHT22;25309;48.686;9.170;2023-05-07T15:27:11;16.50;99.90
39621;DHT22;25309;48.686;9.170;2023-05-07T15:29:38;16.50;99.90
39621;DHT22;25309;48.686;9.170;2023-05-07T15:32:05;16.50;99.90
39621;DHT22;25309;48.686;9.170;2023-05-07T15:34:32;16.60;99.90
39621;DHT22;25309;48.686;9.170;2023-05-07T15:36:59;16.60;99.90
39621;DHT22;25309;48.686;9.170;2023-05-07T15:39:27;16.60;99.90
39621;DHT22;25309;48.686;9.170;2023-05-07T15:41:54;16.70;99.90
39621;DHT22;25309;48.686;9.170;2023-05-07T15:44:21;16.70;99.90
39621;DHT22;25309;48.686;9.170;2023-05-07T15:46:48;16.70;99.90
39621;DHT22;25309;48.686;9.170;2023-05-07T15:49:14;16.70;99.90
39621;DHT22;25309;48.686;9.170;2023-05-07T15:51:41;16.70;99.90
39621;DHT22;25309;48.686;9.170;2023-05-07T15:54:08;16.70;99.90
39621;DHT22;25309;48.686;9.170;2023-05-07T15:56:37;16.70;99.90